Austin, TX

4:11 AM CST on February 01, 2015 (GMT -0600)
APRSWXNET Austin TX US | Change Station
CLOSE
Current Station
Personal Weather Station
Location: Austin, TX
Elevation: 561 ft
Nearby Weather Stations

Elev 561 ft 30.24 °N, 97.75 °W | Updated 41 minutes ago

Overcast
Overcast
62 °F
Feels Like 62 °F
N
3
Wind Variable Wind from ENE
Gusts 8.0 mph

Today
High -- | Low -- °F
--% Chance of Precip.
Yesterday
High -- | Low -- °F
Precip. -- in
7:21 AM 6:07 PM
Waxing Gibbous, 94% visible
Pressure 29.88 in
Visibility 10.0 miles
Clouds Scattered Clouds 2300 ft
Overcast 4900 ft
Dew Point 61 °F
Humidity 96%
Rainfall 0.23 in
Snow Depth Not available.
UV 0 out of 12
Pollen 6.40 out of 12
Air Quality Not available.
Flu Activity Not available.
METAR KAUS 010953Z 18008KT 10SM SCT023 OVC049 17/16 A2989 RMK AO2 SLP117 T01670156

More Conditions Fewer Conditions

Pressure 29.88 in
Visibility 10.0 miles
Clouds Scattered Clouds 2300 ft
Overcast 4900 ft
Dew Point 61 °F
Humidity 96%
Rainfall 0.23 in
Snow Depth Not available.
UV 0 out of 12
Pollen 6.40 out of 12
Air Quality Not available.
Flu Activity Not available.
METAR KAUS 010953Z 18008KT 10SM SCT023 OVC049 17/16 A2989 RMK AO2 SLP117 T01670156

More Conditions Fewer Conditions

Nowcast | as of 2:54 am CST on February 1, 2015

Through 5 am CST...areas of drizzle and light rain will continue to move northeast across The Hill Country and south central Texas. Rainfall amounts will be a trace to a few hundredths of an inch. Areas of fog will combine with the patchy drizzle to reduce visibilities to 3 to 5 miles...with a few locations falling to 1 mile or less. Motorists should use extra caution in areas where roadways are wet and visibilities are low.

×

10-Day Weather Forecast

Almanac

Astronomy

Feb. 01, 2015 Rise Set
Actual Time
Civil Twilight
Nautical Twilight
Astronomical Twilight
Moon
Length of Visible Light
Length of Day
Tomorrow will be .
, % of the Moon is Illuminated

Today's Extremes

State Highs State Lows

Community

WunderPhotos

Upload Photos

1,792,330 photos uploaded!

WunderBlogs® & News

Nearby

Air Quality

  Air Quality AQ Index Pollutant
Not available.

Snow Depth

Station Depth Elevation

Earthquake Activity

City Distance Mag. Time & Date
Minimum magnitude displayed is 2.5.

Coastal Water Temperatures

Place Temperature

Nearby Weather Stations